createdAt,value
2019-03-23T00:01:26.157Z,84.10
2019-03-23T00:06:30.830Z,83.80
2019-03-23T00:11:28.593Z,83.90
2019-03-23T00:16:28.769Z,83.80
2019-03-23T00:21:28.912Z,83.90
2019-03-23T00:26:29.078Z,83.70
2019-03-23T00:31:29.247Z,83.90
2019-03-23T00:36:29.649Z,83.80
2019-03-23T00:41:29.839Z,83.80
2019-03-23T00:46:30.006Z,83.60
2019-03-23T00:51:30.178Z,83.80
2019-03-23T00:56:30.661Z,83.60
2019-03-23T01:01:30.797Z,83.60
2019-03-23T01:06:30.967Z,84.40
2019-03-23T01:11:32.221Z,83.80
2019-03-23T01:16:32.462Z,83.80
2019-03-23T01:21:32.897Z,83.40
2019-03-23T01:26:33.059Z,84.20
2019-03-23T01:31:33.230Z,83.50
2019-03-23T01:36:33.637Z,83.30
2019-03-23T01:41:34.126Z,83.30
2019-03-23T01:46:34.333Z,83.20
2019-03-23T01:51:34.533Z,83.10
2019-03-23T01:56:34.718Z,83.10
2019-03-23T02:01:34.960Z,83.00
2019-03-23T02:06:35.124Z,83.00
2019-03-23T02:11:35.689Z,82.70
2019-03-23T02:16:35.890Z,82.80
2019-03-23T02:21:36.090Z,83.30
2019-03-23T02:26:36.278Z,82.70
2019-03-23T02:31:36.441Z,83.60
2019-03-23T02:36:36.627Z,82.80
2019-03-23T02:41:36.904Z,82.70
2019-03-23T02:46:37.104Z,83.10
2019-03-23T02:51:39.693Z,83.20
2019-03-23T02:56:39.210Z,83.20
2019-03-23T03:01:39.418Z,83.20
2019-03-23T03:06:39.577Z,83.20
2019-03-23T03:11:39.722Z,83.80
2019-03-23T03:16:39.900Z,82.90
2019-03-23T03:21:40.054Z,82.70
2019-03-23T03:26:40.239Z,82.70
2019-03-23T03:31:40.467Z,82.90
2019-03-23T03:36:40.976Z,82.70
2019-03-23T03:41:41.161Z,82.60
2019-03-23T03:46:41.357Z,82.60
2019-03-23T03:51:41.555Z,82.50
2019-03-23T03:56:41.751Z,82.80
2019-03-23T04:01:41.921Z,82.50
2019-03-23T04:06:42.510Z,82.30
2019-03-23T04:11:42.710Z,82.90
2019-03-23T04:16:42.920Z,84.30
2019-03-23T04:21:43.544Z,83.50
2019-03-23T04:26:43.713Z,83.90
2019-03-23T04:31:43.888Z,83.60
2019-03-23T04:36:44.087Z,84.20
2019-03-23T04:41:44.283Z,84.40
2019-03-23T04:46:44.471Z,84.60
2019-03-23T04:51:44.978Z,84.70
2019-03-23T04:56:45.407Z,84.70
2019-03-23T05:01:45.657Z,84.50
2019-03-23T05:06:45.840Z,84.60
2019-03-23T05:11:46.351Z,84.10
2019-03-23T05:16:46.615Z,84.10
2019-03-23T05:21:46.774Z,84.30
2019-03-23T05:26:46.953Z,84.30
2019-03-23T05:31:47.511Z,84.10
2019-03-23T05:36:47.954Z,84.20
2019-03-23T05:41:48.144Z,84.30
2019-03-23T05:46:48.331Z,84.40
2019-03-23T05:51:48.771Z,84.30
2019-03-23T05:56:49.631Z,83.90
2019-03-23T06:01:49.903Z,84.00
2019-03-23T06:06:50.099Z,84.20
2019-03-23T06:11:50.297Z,84.50
2019-03-23T06:16:50.819Z,84.10
2019-03-23T06:21:51.008Z,84.30
2019-03-23T06:26:51.795Z,84.30
2019-03-23T06:31:52.268Z,83.90
2019-03-23T06:36:52.716Z,84.10
2019-03-23T06:41:52.978Z,83.70
2019-03-23T06:46:53.179Z,84.20
2019-03-23T06:51:53.750Z,84.50
2019-03-23T06:56:54.246Z,84.60
2019-03-23T07:01:55.346Z,84.60
2019-03-23T07:06:55.661Z,84.40
2019-03-23T07:11:55.864Z,84.40
2019-03-23T07:16:56.051Z,84.20
2019-03-23T07:21:56.246Z,84.50
2019-03-23T07:26:56.512Z,85.60
2019-03-23T07:32:05.459Z,85.10
2019-03-23T07:36:59.163Z,84.80
2019-03-23T07:41:59.911Z,85.00
2019-03-23T07:47:00.106Z,84.90
2019-03-23T07:52:00.631Z,84.90
2019-03-23T07:57:01.114Z,85.30
2019-03-23T08:02:01.341Z,85.30
2019-03-23T08:07:01.603Z,85.10
2019-03-23T08:12:01.791Z,85.10
2019-03-23T08:17:01.999Z,85.10
2019-03-23T08:22:02.178Z,85.20
2019-03-23T08:27:02.375Z,85.20
2019-03-23T08:32:02.567Z,85.30
2019-03-23T08:37:03.135Z,85.20
2019-03-23T08:42:03.675Z,85.00
2019-03-23T08:47:03.864Z,85.10
2019-03-23T08:52:04.061Z,85.30
2019-03-23T08:57:04.541Z,84.90
2019-03-23T09:02:04.838Z,85.00
2019-03-23T09:07:05.090Z,84.90
2019-03-23T09:12:05.460Z,84.90
2019-03-23T09:17:05.734Z,85.00
2019-03-23T09:22:06.195Z,84.90
2019-03-23T09:27:06.539Z,84.70
2019-03-23T09:32:06.803Z,85.10
2019-03-23T09:37:07.003Z,84.80
2019-03-23T09:42:07.282Z,84.70
2019-03-23T09:47:07.586Z,84.60
2019-03-23T09:52:19.142Z,84.70
2019-03-23T09:57:19.327Z,84.40
2019-03-23T10:02:19.522Z,84.50
2019-03-23T10:07:19.854Z,84.30
2019-03-23T10:12:20.079Z,84.00
2019-03-23T10:17:20.280Z,83.90
2019-03-23T10:22:20.534Z,83.60
2019-03-23T10:27:20.831Z,83.40
2019-03-23T10:32:21.023Z,83.50
2019-03-23T10:37:21.307Z,82.90
2019-03-23T10:42:21.519Z,82.90
2019-03-23T10:47:21.768Z,83.00
2019-03-23T10:52:22.228Z,82.70
2019-03-23T10:57:22.701Z,82.40
2019-03-23T11:02:22.959Z,82.20
2019-03-23T11:07:23.242Z,82.60
2019-03-23T11:12:23.447Z,82.60
2019-03-23T11:17:23.722Z,82.60
2019-03-23T11:22:23.948Z,82.40
2019-03-23T11:27:24.434Z,81.80
2019-03-23T11:32:24.796Z,81.60
2019-03-23T11:37:38.003Z,81.00
2019-03-23T11:42:48.831Z,80.00
2019-03-23T11:47:40.391Z,80.50
2019-03-23T11:52:41.626Z,80.20
2019-03-23T11:57:41.812Z,79.20
2019-03-23T12:02:42.567Z,78.40
2019-03-23T12:07:42.746Z,78.20
2019-03-23T12:12:43.039Z,77.80
2019-03-23T12:17:43.224Z,78.00
2019-03-23T12:22:43.408Z,78.00
2019-03-23T12:27:43.959Z,77.90
2019-03-23T12:32:44.139Z,77.30
2019-03-23T12:37:44.337Z,76.90
2019-03-23T12:42:44.607Z,77.20
2019-03-23T12:47:44.771Z,76.90
2019-03-23T12:52:45.047Z,77.00
2019-03-23T12:57:45.588Z,76.40
2019-03-23T13:02:45.867Z,76.10
2019-03-23T13:07:46.387Z,75.60
2019-03-23T13:12:46.743Z,75.70
2019-03-23T13:17:47.275Z,75.50
2019-03-23T13:22:59.228Z,75.40
2019-03-23T13:27:59.439Z,75.80
2019-03-23T13:32:59.959Z,75.80
2019-03-23T13:38:00.240Z,75.70
2019-03-23T13:43:00.547Z,75.60
2019-03-23T13:48:00.872Z,75.30
2019-03-23T13:53:01.363Z,75.80
2019-03-23T13:58:12.455Z,77.20
2019-03-23T14:03:12.921Z,77.40
2019-03-23T14:08:13.276Z,77.40
2019-03-23T14:13:13.498Z,77.70
2019-03-23T14:18:13.731Z,77.80
2019-03-23T14:23:13.947Z,78.10
2019-03-23T14:28:14.163Z,78.40
2019-03-23T14:33:14.663Z,78.40
2019-03-23T14:38:14.875Z,78.40
2019-03-23T14:43:15.090Z,77.70
2019-03-23T14:48:15.411Z,78.20
2019-03-23T14:53:15.631Z,78.50
2019-03-23T14:58:16.169Z,78.30
2019-03-23T15:03:16.714Z,78.50
2019-03-23T15:08:17.227Z,78.40
2019-03-23T15:13:17.507Z,78.20
2019-03-23T15:18:17.715Z,78.10
2019-03-23T15:23:18.992Z,78.20
2019-03-23T15:28:19.180Z,78.00
2019-03-23T15:33:19.515Z,78.10
2019-03-23T15:38:19.735Z,78.20
2019-03-23T15:43:19.968Z,78.00
2019-03-23T15:48:20.175Z,77.90
2019-03-23T15:53:20.395Z,77.70
2019-03-23T15:58:21.165Z,78.00
2019-03-23T16:03:21.366Z,78.00
2019-03-23T16:08:21.604Z,77.80
2019-03-23T16:13:21.870Z,77.60
2019-03-23T16:18:22.428Z,77.60
2019-03-23T16:23:22.935Z,77.60
2019-03-23T16:28:23.227Z,77.50
2019-03-23T16:33:23.467Z,77.30
2019-03-23T16:38:23.693Z,77.20
2019-03-23T16:43:24.233Z,75.90
2019-03-23T16:48:24.494Z,75.20
2019-03-23T16:53:24.675Z,74.90
2019-03-23T16:58:24.851Z,73.40
2019-03-23T17:03:25.137Z,74.50
2019-03-23T17:08:25.392Z,73.30
2019-03-23T17:13:37.546Z,72.80
2019-03-23T17:18:37.741Z,72.60
2019-03-23T17:23:37.960Z,72.80
2019-03-23T17:28:39.239Z,73.00
2019-03-23T17:33:39.744Z,72.10
2019-03-23T17:38:40.715Z,71.30
2019-03-23T17:43:41.457Z,71.30
2019-03-23T17:48:41.999Z,70.20
2019-03-23T17:53:58.590Z,70.80
2019-03-23T17:58:55.973Z,71.60
2019-03-23T18:03:56.497Z,71.30
2019-03-23T18:08:56.699Z,70.90
2019-03-23T18:13:56.907Z,70.60
2019-03-23T18:18:57.192Z,70.00
2019-03-23T18:23:57.459Z,70.00
2019-03-23T18:28:57.997Z,70.00
2019-03-23T18:33:58.493Z,70.40
2019-03-23T18:39:00.419Z,70.00
2019-03-23T18:44:02.306Z,70.80
2019-03-23T18:49:02.490Z,71.10
2019-03-23T18:54:02.949Z,70.90
2019-03-23T18:59:03.135Z,71.70
2019-03-23T19:04:03.579Z,71.40
2019-03-23T19:09:05.165Z,71.70
2019-03-23T19:14:05.732Z,71.60
2019-03-23T19:19:06.239Z,72.00
2019-03-23T19:24:06.459Z,72.30
2019-03-23T19:29:07.389Z,72.90
2019-03-23T19:34:07.546Z,72.90
2019-03-23T19:39:09.287Z,72.50
2019-03-23T19:44:10.355Z,73.30
2019-03-23T19:49:10.893Z,73.20
2019-03-23T19:54:11.163Z,73.70
2019-03-23T19:59:11.670Z,73.40
2019-03-23T20:04:12.120Z,73.20
2019-03-23T20:09:13.698Z,74.30
2019-03-23T20:14:13.959Z,74.40
2019-03-23T20:19:14.139Z,74.30
2019-03-23T20:24:14.330Z,74.70
2019-03-23T20:29:14.494Z,74.40
2019-03-23T20:34:14.703Z,75.60
2019-03-23T20:39:15.282Z,75.10
2019-03-23T20:44:15.478Z,75.70
2019-03-23T20:49:16.419Z,75.80
2019-03-23T20:54:16.816Z,75.90
2019-03-23T20:59:16.998Z,75.10
2019-03-23T21:04:17.558Z,76.10
2019-03-23T21:09:18.329Z,76.10
2019-03-23T21:14:20.427Z,77.10
2019-03-23T21:19:20.876Z,76.60
2019-03-23T21:24:22.464Z,78.10
2019-03-23T21:29:22.641Z,77.40
2019-03-23T21:34:22.827Z,76.80
2019-03-23T21:39:23.087Z,77.40
2019-03-23T21:44:30.937Z,77.10
2019-03-23T21:49:25.396Z,76.80
2019-03-23T21:54:25.591Z,77.00
2019-03-23T21:59:26.144Z,77.30
2019-03-23T22:04:26.374Z,77.20
2019-03-23T22:09:27.124Z,77.50
2019-03-23T22:14:27.339Z,77.70
2019-03-23T22:19:27.622Z,77.70
2019-03-23T22:24:28.105Z,77.70
2019-03-23T22:29:28.620Z,77.60
2019-03-23T22:34:28.868Z,77.60
2019-03-23T22:39:29.483Z,77.90
2019-03-23T22:44:30.140Z,77.60
2019-03-23T22:49:30.743Z,77.40
2019-03-23T22:54:30.926Z,77.00
2019-03-23T22:59:31.680Z,77.60
2019-03-23T23:04:31.927Z,77.30
2019-03-23T23:09:32.107Z,77.30
2019-03-23T23:14:32.596Z,77.40
2019-03-23T23:19:32.775Z,77.60
2019-03-23T23:24:33.282Z,77.70
2019-03-23T23:29:33.539Z,77.80
2019-03-23T23:34:34.074Z,77.30
2019-03-23T23:39:34.255Z,77.30
2019-03-23T23:44:36.875Z,77.40
2019-03-23T23:49:36.587Z,77.60
2019-03-23T23:54:36.783Z,77.50
2019-03-23T23:59:36.962Z,77.70
